Date,TemperatureHighF,TemperatureAvgF,TemperatureLowF,DewpointHighF,DewpointAvgF,DewpointLowF,HumidityHigh,HumidityAvg,HumidityLow,PressureMaxIn,PressureMinIn,WindSpeedMaxMPH,WindSpeedAvgMPH,GustSpeedMaxMPH,PrecipitationSumIn
2013-8-1,82.9,69.6,63.7,66.8,58.6,52.8,87,69,44,29.18,29.00,3,-174,6,0.00
2013-8-2,72.5,65.9,59.5,61.0,58.1,53.7,92,76,61,29.09,29.03,3,-239,4,0.21
2013-8-3,89.6,71.6,62.2,58.6,49.5,39.0,82,49,21,29.12,29.00,3,-227,4,0.00
2013-8-4,80.8,66.7,58.6,53.9,46.7,41.0,71,50,31,29.23,29.12,1,-847,1,0.00
2013-8-5,87.6,66.9,55.6,54.8,46.1,39.6,82,51,23,29.32,29.21,0,-999,0,0.00
2013-8-6,90.5,69.1,54.3,56.6,50.4,42.9,88,56,23,29.26,29.18,0,-364,1,0.00
2013-8-7,80.2,71.9,66.1,63.0,58.3,53.1,77,63,50,29.23,29.12,0,0,3,0.00
2013-8-8,91.0,73.4,66.2,70.6,65.6,58.0,100,79,41,29.92,29.09,10,0,18,0.83
2013-8-9,77.6,71.5,64.0,73.3,67.7,59.0,100,89,65,29.15,29.03,0,0,0,0.12
2013-8-10,86.2,68.8,57.6,62.3,51.0,41.3,97,59,23,29.29,29.12,1,0,5,0.00
2013-8-11,86.3,66.4,56.7,58.3,51.4,44.4,91,62,30,29.32,29.23,0,-6,1,0.00
2013-8-12,88.7,70.6,60.4,59.1,55.1,49.7,83,61,32,29.26,29.06,0,0,1,0.00
2013-8-13,89.2,68.0,58.3,70.4,57.2,42.4,100,71,38,29.12,28.94,1,0,6,0.87
2013-8-14,76.1,61.6,53.4,53.1,43.7,38.6,83,53,33,29.26,29.00,2,0,7,0.00
2013-8-15,84.7,63.5,50.7,51.0,45.6,40.9,86,56,27,29.35,29.26,0,-7,2,0.00
2013-8-16,85.1,71.3,57.7,55.8,46.6,41.2,73,44,25,29.41,29.29,0,0,0,0.00
2013-8-17,90.1,69.3,56.1,58.1,51.3,44.4,91,58,28,29.50,29.41,0,0,1,0.00
2013-8-18,82.9,67.9,60.4,57.7,54.6,48.6,83,65,33,29.47,29.29,0,-10,2,0.00
2013-8-19,90.4,73.0,62.4,61.2,55.0,47.6,83,57,30,29.32,29.23,0,0,1,0.00
2013-8-20,95.6,74.2,61.0,60.8,54.9,47.1,90,57,22,29.35,29.23,0,0,2,0.00
2013-8-21,96.6,75.6,63.3,61.5,57.0,49.9,90,58,23,29.38,29.23,0,0,3,0.00
2013-8-22,95.1,75.3,65.8,66.4,61.1,53.9,91,66,30,29.26,29.09,1,0,3,0.13
2013-8-23,87.6,68.8,56.7,63.7,52.8,44.8,96,62,28,29.41,29.18,1,0,5,0.00
2013-8-24,92.1,66.2,52.8,60.0,48.4,42.0,93,59,21,29.56,29.38,0,0,2,0.00
2013-8-25,94.7,71.1,54.3,57.5,51.0,44.5,92,55,20,29.56,29.35,0,0,3,0.00
2013-8-26,88.2,71.7,66.7,70.4,62.4,54.1,100,75,40,29.38,29.12,0,0,1,0.62
2013-8-27,94.6,76.1,66.7,74.3,67.8,63.6,100,79,40,29.15,29.06,0,0,0,0.04
2013-8-28,90.4,74.7,68.5,73.2,68.9,65.1,98,83,45,29.15,29.06,0,0,0,0.08
2013-8-29,93.9,74.3,65.1,72.1,64.5,58.3,99,75,37,29.26,29.12,0,0,0,0.00
2013-8-30,95.0,76.3,64.0,67.8,61.6,52.9,97,66,27,29.21,29.00,0,0,0,0.00
2013-8-31,93.7,76.9,69.8,70.0,65.5,60.4,91,70,39,29.09,28.94,1,0,3,0.00